createdAt,value
2022-09-23T00:13:26.981Z,98.35
2022-09-23T00:28:33.762Z,98.46
2022-09-23T00:43:47.803Z,98.04
2022-09-23T00:58:53.942Z,97.68
2022-09-23T01:14:06.737Z,98.47
2022-09-23T01:29:44.185Z,98.45
2022-09-23T01:44:54.826Z,98.48
2022-09-23T02:00:07.550Z,98.32
2022-09-23T02:15:17.047Z,97.87
2022-09-23T02:30:27.397Z,98.84
2022-09-23T02:45:33.980Z,98.41
2022-09-23T03:00:51.617Z,98.18
2022-09-23T03:16:06.651Z,97.98
2022-09-23T03:31:13.466Z,97.71
2022-09-23T03:46:19.739Z,98.17
2022-09-23T04:01:25.452Z,98.27
2022-09-23T04:16:31.378Z,98.86
2022-09-23T04:31:37.716Z,98.39
2022-09-23T04:46:44.285Z,97.99
2022-09-23T05:01:52.106Z,97.95
2022-09-23T05:16:57.878Z,98.34
2022-09-23T05:32:03.707Z,97.97
2022-09-23T05:47:09.675Z,97.99
2022-09-23T06:02:16.242Z,96.07
2022-09-23T06:17:22.234Z,95.49
2022-09-23T06:32:27.931Z,94.38
2022-09-23T06:47:33.641Z,94.04
2022-09-23T07:02:42.326Z,93.57
2022-09-23T07:17:48.230Z,92.21
2022-09-23T07:32:54.070Z,87.65
2022-09-23T07:48:00.318Z,83.97
2022-09-23T08:03:06.114Z,81.18
2022-09-23T08:18:11.920Z,78.01
2022-09-23T08:33:23.136Z,75.15
2022-09-23T08:48:31.664Z,73.62
2022-09-23T09:03:41.673Z,71.28
2022-09-23T09:18:53.944Z,69.13
2022-09-23T09:34:03.985Z,68.52
2022-09-23T09:49:22.345Z,69.13
2022-09-23T10:04:37.370Z,66.97
2022-09-23T10:19:48.840Z,63.37
2022-09-23T10:34:57.252Z,59.17
2022-09-23T10:50:14.845Z,61.76
2022-09-23T11:05:39.254Z,63.79
2022-09-23T11:20:54.945Z,63.44
2022-09-23T11:36:04.549Z,60.60
2022-09-23T11:51:14.823Z,62.54
2022-09-23T12:06:23.261Z,63.69
2022-09-23T12:21:50.807Z,60.57
2022-09-23T12:37:04.906Z,60.64
2022-09-23T12:52:27.059Z,60.57
2022-09-23T13:07:34.815Z,60.38
2022-09-23T13:23:09.021Z,61.84
2022-09-23T13:38:26.480Z,62.47
2022-09-23T13:53:34.621Z,64.67
2022-09-23T14:08:45.365Z,67.34
2022-09-23T14:23:51.239Z,67.09
2022-09-23T14:39:03.722Z,70.26
2022-09-23T14:54:38.749Z,69.90
2022-09-23T15:09:46.088Z,71.37
2022-09-23T15:24:53.886Z,71.20
2022-09-23T15:39:59.759Z,74.35
2022-09-23T15:55:14.767Z,76.95
2022-09-23T16:10:21.995Z,78.59
2022-09-23T16:25:30.465Z,79.47
2022-09-23T16:40:36.266Z,82.14
2022-09-23T16:55:42.097Z,84.21
2022-09-23T17:10:57.401Z,85.98
2022-09-23T17:26:05.673Z,90.75
2022-09-23T17:41:12.031Z,92.20
2022-09-23T17:56:18.850Z,92.95
2022-09-23T18:11:26.365Z,96.25
2022-09-23T18:26:32.152Z,95.10
2022-09-23T18:41:38.223Z,94.64
2022-09-23T18:56:45.191Z,95.95
2022-09-23T19:11:52.823Z,94.51
2022-09-23T19:26:58.716Z,95.39
2022-09-23T19:42:04.461Z,97.18
2022-09-23T19:57:10.562Z,97.26
2022-09-23T20:12:16.379Z,98.36
2022-09-23T20:27:21.973Z,98.74
2022-09-23T20:42:27.539Z,99.12
2022-09-23T20:57:33.363Z,98.56
2022-09-23T21:12:38.883Z,99.38
2022-09-23T21:27:45.240Z,99.89
2022-09-23T21:42:51.034Z,101.09
2022-09-23T21:57:56.796Z,101.30
2022-09-23T22:13:02.456Z,102.21
2022-09-23T22:28:25.443Z,103.01
2022-09-23T22:43:31.534Z,102.82
2022-09-23T22:58:37.086Z,102.61
2022-09-23T23:13:43.304Z,104.17
2022-09-23T23:28:50.467Z,104.02
2022-09-23T23:43:59.398Z,104.50
2022-09-23T23:59:05.534Z,106.88
